createdAt,value
2022-10-09T00:03:43.353Z,5.68
2022-10-09T00:08:44.895Z,5.60
2022-10-09T00:13:46.402Z,4.70
2022-10-09T00:18:47.943Z,4.93
2022-10-09T00:23:49.523Z,4.13
2022-10-09T00:28:51.117Z,4.78
2022-10-09T00:33:52.705Z,4.50
2022-10-09T00:38:54.260Z,3.83
2022-10-09T00:43:55.799Z,4.57
2022-10-09T00:48:57.336Z,4.10
2022-10-09T00:53:58.892Z,3.88
2022-10-09T00:59:00.444Z,4.57
2022-10-09T01:04:01.992Z,3.90
2022-10-09T01:09:03.530Z,3.65
2022-10-09T01:14:05.049Z,3.45
2022-10-09T01:19:06.577Z,3.75
2022-10-09T01:24:08.123Z,3.58
2022-10-09T01:29:09.643Z,5.40
2022-10-09T01:34:11.154Z,3.05
2022-10-09T01:39:12.699Z,4.38
2022-10-09T01:44:14.216Z,4.28
2022-10-09T01:49:15.738Z,5.32
2022-10-09T01:54:17.261Z,4.50
2022-10-09T01:59:18.771Z,4.45
2022-10-09T02:04:20.272Z,4.82
2022-10-09T02:09:21.810Z,3.80
2022-10-09T02:14:23.327Z,3.70
2022-10-09T02:19:24.844Z,3.90
2022-10-09T02:24:26.362Z,3.50
2022-10-09T02:29:27.903Z,3.35
2022-10-09T02:34:29.466Z,3.50
2022-10-09T02:39:31.009Z,3.38
2022-10-09T02:44:32.546Z,3.17
2022-10-09T02:49:34.091Z,3.70
2022-10-09T02:54:35.622Z,3.20
2022-10-09T02:59:37.174Z,3.45
2022-10-09T03:04:38.727Z,3.53
2022-10-09T03:09:40.250Z,3.50
2022-10-09T03:14:41.785Z,3.65
2022-10-09T03:19:43.321Z,3.30
2022-10-09T03:24:44.842Z,3.60
2022-10-09T03:29:46.353Z,3.53
2022-10-09T03:34:47.909Z,3.50
2022-10-09T03:39:49.426Z,3.65
2022-10-09T03:44:50.951Z,4.00
2022-10-09T03:49:52.484Z,3.75
2022-10-09T03:54:54.003Z,4.22
2022-10-09T03:59:55.561Z,3.50
2022-10-09T04:04:57.120Z,4.13
2022-10-09T04:09:58.640Z,3.72
2022-10-09T04:15:00.177Z,3.50
2022-10-09T04:20:01.721Z,3.47
2022-10-09T04:25:03.246Z,3.50
2022-10-09T04:30:04.755Z,3.33
2022-10-09T04:35:06.274Z,3.38
2022-10-09T04:40:07.800Z,3.15
2022-10-09T04:45:09.355Z,3.70
2022-10-09T04:50:10.900Z,3.40
2022-10-09T04:55:12.472Z,3.17
2022-10-09T05:00:13.993Z,3.03
2022-10-09T05:05:15.558Z,3.17
2022-10-09T05:10:17.113Z,3.10
2022-10-09T05:15:18.639Z,3.38
2022-10-09T05:20:20.197Z,3.50
2022-10-09T05:25:21.727Z,3.33
2022-10-09T05:30:23.279Z,4.25
2022-10-09T05:35:24.823Z,3.88
2022-10-09T05:40:29.252Z,3.70
2022-10-09T05:45:30.971Z,3.47
2022-10-09T05:50:32.518Z,3.83
2022-10-09T05:55:34.281Z,3.80
2022-10-09T06:00:35.811Z,4.53
2022-10-09T06:05:39.600Z,5.20
2022-10-09T06:10:41.168Z,6.20
2022-10-09T06:15:42.730Z,7.63
2022-10-09T06:20:44.257Z,5.22
2022-10-09T06:25:45.809Z,4.00
2022-10-09T06:30:47.429Z,3.47
2022-10-09T06:35:48.993Z,3.50
2022-10-09T06:40:50.538Z,3.00
2022-10-09T06:45:52.155Z,3.45
2022-10-09T06:50:53.748Z,3.20
2022-10-09T06:55:55.257Z,3.40
2022-10-09T07:00:56.822Z,3.30
2022-10-09T07:05:58.363Z,3.30
2022-10-09T07:10:59.898Z,3.38
2022-10-09T07:16:04.687Z,3.58
2022-10-09T07:21:06.612Z,3.80
2022-10-09T07:26:08.146Z,3.72
2022-10-09T07:31:09.838Z,3.13
2022-10-09T07:36:11.398Z,3.20
2022-10-09T07:41:12.927Z,3.00
2022-10-09T07:46:14.527Z,3.17
2022-10-09T07:51:16.125Z,2.80
2022-10-09T07:56:17.692Z,2.38
2022-10-09T08:01:20.551Z,2.40
2022-10-09T08:06:22.274Z,2.42
2022-10-09T08:11:23.882Z,2.17
2022-10-09T08:16:25.435Z,1.98
2022-10-09T08:21:26.964Z,2.50
2022-10-09T08:26:28.503Z,2.33
2022-10-09T08:31:30.113Z,2.10
2022-10-09T08:36:31.697Z,2.17
2022-10-09T08:41:33.230Z,1.98
2022-10-09T08:46:34.800Z,1.90
2022-10-09T08:51:36.346Z,1.80
2022-10-09T08:56:37.866Z,1.50
2022-10-09T09:01:39.449Z,2.00
2022-10-09T09:06:41.037Z,1.85
2022-10-09T09:11:42.579Z,1.48
2022-10-09T09:16:44.117Z,1.90
2022-10-09T09:21:45.636Z,1.60
2022-10-09T09:26:47.150Z,1.73
2022-10-09T09:31:48.707Z,1.48
2022-10-09T09:36:50.244Z,1.40
2022-10-09T09:41:51.790Z,1.58
2022-10-09T09:46:53.384Z,1.60
2022-10-09T09:51:54.949Z,1.40
2022-10-09T09:57:15.907Z,1.20
2022-10-09T10:02:18.173Z,1.50
2022-10-09T10:07:19.787Z,1.02
2022-10-09T10:12:21.308Z,1.02
2022-10-09T10:17:22.837Z,1.50
2022-10-09T10:22:24.360Z,1.10
2022-10-09T10:27:25.911Z,1.17
2022-10-09T10:32:27.455Z,1.40
2022-10-09T10:37:28.967Z,1.10
2022-10-09T10:42:30.500Z,1.05
2022-10-09T10:47:32.008Z,0.90
2022-10-09T10:52:33.538Z,1.05
2022-10-09T10:57:35.090Z,1.13
2022-10-09T11:02:40.967Z,0.93
2022-10-09T11:07:43.817Z,1.20
2022-10-09T11:12:48.720Z,1.10
2022-10-09T11:17:50.360Z,1.00
2022-10-09T11:22:52.125Z,0.98
2022-10-09T11:27:53.892Z,0.95
2022-10-09T11:32:55.406Z,0.85
2022-10-09T11:37:56.953Z,0.90
2022-10-09T11:42:58.747Z,1.05
2022-10-09T11:48:00.279Z,1.00
2022-10-09T11:53:01.818Z,0.80
2022-10-09T11:58:03.355Z,1.17
2022-10-09T12:03:04.884Z,0.85
2022-10-09T12:08:06.395Z,1.35
2022-10-09T12:13:07.903Z,1.00
2022-10-09T12:18:09.427Z,0.80
2022-10-09T12:23:27.652Z,0.90
2022-10-09T12:28:29.716Z,0.77
2022-10-09T12:33:31.320Z,0.90
2022-10-09T12:38:32.861Z,0.95
2022-10-09T12:43:34.381Z,0.60
2022-10-09T12:48:35.892Z,0.77
2022-10-09T12:53:37.404Z,0.80
2022-10-09T12:58:38.966Z,0.80
2022-10-09T13:03:40.490Z,0.82
2022-10-09T13:08:42.011Z,1.25
2022-10-09T13:13:43.511Z,0.70
2022-10-09T13:18:45.027Z,0.70
2022-10-09T13:23:46.562Z,0.70
2022-10-09T13:28:48.190Z,0.82
2022-10-09T13:33:49.774Z,0.80
2022-10-09T13:38:51.298Z,0.70
2022-10-09T13:43:52.811Z,0.75
2022-10-09T13:48:54.315Z,0.70
2022-10-09T13:53:55.838Z,0.70
2022-10-09T13:58:57.349Z,0.70
2022-10-09T14:03:58.874Z,0.80
2022-10-09T14:09:02.767Z,0.77
2022-10-09T14:14:04.268Z,0.80
2022-10-09T14:19:06.348Z,0.80
2022-10-09T14:24:07.872Z,0.70
2022-10-09T14:29:09.386Z,0.93
2022-10-09T14:34:10.909Z,1.05
2022-10-09T14:39:12.432Z,0.70
2022-10-09T14:44:13.932Z,0.90
2022-10-09T14:49:15.495Z,0.90
2022-10-09T14:54:17.014Z,0.80
2022-10-09T14:59:18.525Z,1.00
2022-10-09T15:04:20.152Z,0.93
2022-10-09T15:09:21.691Z,0.85
2022-10-09T15:14:23.253Z,0.95
2022-10-09T15:19:24.755Z,1.30
2022-10-09T15:24:26.309Z,1.10
2022-10-09T15:29:27.880Z,1.00
2022-10-09T15:34:29.407Z,1.20
2022-10-09T15:39:30.932Z,1.20
2022-10-09T15:44:32.481Z,0.80
2022-10-09T15:49:33.962Z,1.33
2022-10-09T15:54:35.471Z,1.10
2022-10-09T15:59:37.004Z,1.48
2022-10-09T16:04:38.538Z,1.98
2022-10-09T16:09:40.072Z,2.35
2022-10-09T16:14:41.596Z,1.30
2022-10-09T16:19:43.180Z,3.03
2022-10-09T16:24:44.709Z,1.33
2022-10-09T16:29:46.217Z,3.38
2022-10-09T16:34:47.725Z,2.63
2022-10-09T16:39:49.241Z,3.70
2022-10-09T16:44:50.766Z,5.63
2022-10-09T16:49:52.303Z,4.55
2022-10-09T16:54:57.045Z,7.63
2022-10-09T17:00:01.120Z,10.55
2022-10-09T17:05:02.667Z,8.13
2022-10-09T17:10:04.280Z,5.35
2022-10-09T17:15:05.825Z,6.20
2022-10-09T17:20:07.361Z,4.95
2022-10-09T17:25:08.851Z,11.88
2022-10-09T17:30:10.414Z,7.90
2022-10-09T17:35:11.964Z,9.65
2022-10-09T17:40:13.494Z,8.20
2022-10-09T17:45:15.037Z,15.50
2022-10-09T17:50:16.560Z,11.82
2022-10-09T17:55:18.097Z,9.98
2022-10-09T18:00:21.829Z,11.57
2022-10-09T18:05:23.597Z,14.82
2022-10-09T18:10:25.117Z,26.02
2022-10-09T18:15:26.643Z,59.10
2022-10-09T18:20:28.168Z,29.38
2022-10-09T18:25:29.706Z,42.97
2022-10-09T18:30:31.244Z,22.50
2022-10-09T18:35:32.778Z,10.88
2022-10-09T18:40:34.301Z,7.63
2022-10-09T18:45:36.894Z,6.20
2022-10-09T18:50:38.431Z,11.30
2022-10-09T18:55:39.941Z,13.85
2022-10-09T19:00:41.515Z,12.80
2022-10-09T19:05:43.067Z,18.77
2022-10-09T19:10:44.616Z,32.88
2022-10-09T19:15:46.138Z,21.63
2022-10-09T19:20:47.675Z,17.42
2022-10-09T19:25:49.209Z,25.50
2022-10-09T19:30:50.734Z,25.83
2022-10-09T19:35:52.264Z,12.50
2022-10-09T19:40:53.800Z,9.13
2022-10-09T19:45:55.330Z,10.05
2022-10-09T19:50:56.836Z,12.15
2022-10-09T19:55:58.358Z,12.73
2022-10-09T20:00:59.947Z,19.02
2022-10-09T20:06:01.515Z,17.95
2022-10-09T20:11:03.062Z,17.50
2022-10-09T20:16:04.607Z,17.90
2022-10-09T20:21:06.144Z,15.57
2022-10-09T20:26:07.659Z,13.10
2022-10-09T20:31:09.203Z,10.75
2022-10-09T20:36:10.722Z,10.95
2022-10-09T20:41:12.255Z,10.50
2022-10-09T20:46:13.766Z,10.35
2022-10-09T20:51:15.282Z,13.27
2022-10-09T20:56:16.786Z,11.32
2022-10-09T21:01:18.349Z,10.60
2022-10-09T21:06:19.879Z,12.05
2022-10-09T21:11:21.384Z,6.97
2022-10-09T21:16:22.886Z,7.25
2022-10-09T21:21:24.391Z,8.98
2022-10-09T21:26:25.930Z,10.93
2022-10-09T21:31:27.465Z,10.40
2022-10-09T21:36:28.989Z,8.25
2022-10-09T21:41:30.512Z,6.05
2022-10-09T21:46:32.020Z,7.60
2022-10-09T21:51:33.550Z,7.20
2022-10-09T21:56:35.064Z,4.72
2022-10-09T22:01:36.605Z,5.00
2022-10-09T22:06:38.184Z,5.15
2022-10-09T22:11:39.736Z,5.75
2022-10-09T22:16:41.244Z,5.25
2022-10-09T22:21:42.759Z,4.38
2022-10-09T22:26:44.265Z,5.57
2022-10-09T22:31:45.833Z,5.40
2022-10-09T22:36:47.380Z,5.45
2022-10-09T22:41:48.890Z,5.78
2022-10-09T22:46:50.415Z,5.32
2022-10-09T22:51:51.937Z,6.65
2022-10-09T22:56:53.445Z,7.20
2022-10-09T23:01:55.095Z,8.13
2022-10-09T23:06:56.661Z,8.18
2022-10-09T23:11:58.198Z,8.77
2022-10-09T23:16:59.736Z,6.55
2022-10-09T23:22:01.272Z,7.32
2022-10-09T23:27:02.804Z,8.15
2022-10-09T23:32:04.347Z,6.63
2022-10-09T23:37:05.865Z,5.97
2022-10-09T23:42:07.374Z,7.72
2022-10-09T23:47:08.879Z,7.43
2022-10-09T23:52:10.398Z,6.50
2022-10-09T23:57:11.959Z,6.28
